Time;durP1;ratioP1;P1;durP2;ratioP2;P2;SDS_P1;SDS_P2;PMS_P1;PMS_P2;Temp;Humidity;BMP_temperature;BMP_pressure;BME280_temperature;BME280_humidity;BME280_pressure;Samples;Min_cycle;Max_cycle;Signal;HPM_P1;HPM_P2
2022/05/01 00:00:26;;;;;;;7.87;4.93;;;;;;;9.33;77.61;102501.97;5113206;28;20059;-33
2022/05/01 00:02:51;;;;;;;5.63;5.00;;;;;;;9.37;79.85;102516.75;5113217;28;20325;-33
2022/05/01 00:05:17;;;;;;;5.88;4.97;;;;;;;9.35;78.45;102514.25;5113417;28;20032;-33
2022/05/01 00:07:43;;;;;;;6.77;5.00;;;;;;;9.31;79.16;102514.81;5112956;28;20023;-33
2022/05/01 00:10:09;;;;;;;5.90;5.40;;;;;;;9.38;78.29;102508.50;5113187;28;20020;-33
2022/05/01 00:12:35;;;;;;;;;;;;;;;9.46;77.71;102511.13;5113075;28;20024;-33
2022/05/01 00:15:01;;;;;;;7.10;5.18;;;;;;;9.37;78.41;102512.22;5113997;28;19961;-33
2022/05/01 00:17:26;;;;;;;7.93;5.60;;;;;;;9.28;78.37;102502.53;5113200;28;20103;-33
2022/05/01 00:19:52;;;;;;;6.27;5.67;;;;;;;9.25;79.21;102502.88;5113032;28;20023;-33
2022/05/01 00:22:17;;;;;;;6.07;5.17;;;;;;;9.31;79.12;102510.25;5116040;28;20019;-33
2022/05/01 00:24:42;;;;;;;6.23;5.63;;;;;;;9.36;79.13;102509.69;5117194;28;20368;-33
2022/05/01 00:27:08;;;;;;;6.50;5.90;;;;;;;9.33;78.46;102504.69;5117188;28;20031;-33
2022/05/01 00:29:34;;;;;;;6.40;5.70;;;;;;;9.33;78.61;102510.06;5116857;28;20383;-33
2022/05/01 00:32:00;;;;;;;6.35;5.75;;;;;;;9.30;79.44;102513.97;5117015;28;20333;-33
2022/05/01 00:37:09;;;;;;;7.18;5.75;;;;;;;9.26;79.55;102509.94;5116713;28;20046;-33
2022/05/01 00:39:34;;;;;;;6.13;5.53;;;;;;;9.22;79.18;102503.22;5116490;28;20015;-33
2022/05/01 00:42:00;;;;;;;7.60;6.10;;;;;;;9.28;79.13;102508.75;5116798;28;20102;-33
2022/05/01 00:44:25;;;;;;;5.90;5.35;;;;;;;9.23;78.56;102504.94;5116276;28;20382;-33
2022/05/01 00:46:53;;;;;;;6.68;5.97;;;;;;;9.15;79.27;102495.03;5116938;28;20035;-33
2022/05/01 00:49:23;;;;;;;6.47;5.88;;;;;;;9.11;79.32;102484.78;5116018;28;20173;-33
2022/05/01 00:52:07;;;;;;;8.75;6.38;;;;;;;9.13;79.25;102482.75;5116012;28;20023;-33
2022/05/01 00:54:36;;;;;;;7.07;6.05;;;;;;;9.10;79.51;102483.94;5116142;28;20134;-33
2022/05/01 00:57:04;;;;;;;6.95;5.80;;;;;;;9.18;79.31;102491.13;5116295;28;20569;-33
2022/05/01 00:59:30;;;;;;;9.02;6.32;;;;;;;9.21;79.11;102491.59;5097997;28;20035;-33
2022/05/01 01:01:56;;;;;;;6.28;5.68;;;;;;;9.12;79.08;102481.06;5116324;28;20497;-33
2022/05/01 01:04:22;;;;;;;6.93;6.10;;;;;;;9.16;79.20;102493.16;5115609;28;20065;-33
2022/05/01 01:06:48;;;;;;;6.35;5.70;;;;;;;9.11;79.85;102477.50;5115755;28;20063;-33
2022/05/01 01:09:15;;;;;;;6.72;6.03;;;;;;;9.17;79.79;102489.44;5115860;28;20034;-33
2022/05/01 01:11:42;;;;;;;7.45;6.00;;;;;;;9.14;79.43;102479.03;5115551;28;20027;-33
2022/05/01 01:14:07;;;;;;;6.80;6.10;;;;;;;9.05;79.67;102466.63;5116273;28;20047;-33
2022/05/01 01:16:35;;;;;;;6.65;5.97;;;;;;;9.20;79.17;102489.09;5115851;28;20028;-33
2022/05/01 01:19:03;;;;;;;7.90;6.57;;;;;;;9.10;79.89;102486.63;5097723;28;20039;-33
2022/05/01 01:21:28;;;;;;;7.25;6.13;;;;;;;9.18;79.78;102488.44;5115468;28;20069;-33
2022/05/01 01:23:54;;;;;;;7.00;6.30;;;;;;;9.15;79.00;102483.41;5115535;28;20210;-33
2022/05/01 01:26:20;;;;;;;8.10;6.67;;;;;;;9.08;79.16;102480.59;5116104;28;20023;-33
2022/05/01 01:28:47;;;;;;;8.52;6.80;;;;;;;9.04;80.33;102500.84;5115773;28;20268;-33
2022/05/01 01:34:05;;;;;;;7.15;6.43;;;;;;;9.01;80.07;102476.94;5115459;28;20046;-32
2022/05/01 01:36:32;;;;;;;8.27;6.72;;;;;;;9.02;80.39;102492.09;5115514;28;20039;-33
2022/05/01 01:38:58;;;;;;;7.03;6.32;;;;;;;9.04;80.62;102495.47;5115000;28;20073;-33
2022/05/01 01:41:28;;;;;;;;;;;;;;;9.14;78.67;102489.81;5115717;28;20020;-32
2022/05/01 01:43:53;;;;;;;6.70;6.10;;;;;;;9.07;79.66;102496.94;5115127;28;19911;-32
2022/05/01 01:46:19;;;;;;;7.35;6.65;;;;;;;8.87;80.10;102477.72;5115278;28;20110;-33
2022/05/01 01:48:46;;;;;;;7.47;6.77;;;;;;;8.83;81.15;102481.78;5115078;28;20055;-33
2022/05/01 01:51:12;;;;;;;7.75;6.95;;;;;;;8.87;80.74;102483.94;5114952;28;20118;-33
2022/05/01 01:53:38;;;;;;;8.75;6.82;;;;;;;8.85;80.46;102486.00;5096605;28;20089;-33
2022/05/01 01:56:04;;;;;;;8.45;6.85;;;;;;;8.91;80.70;102482.56;5115492;28;20035;-32
2022/05/01 01:58:31;;;;;;;9.35;7.15;;;;;;;8.84;80.81;102489.72;5115045;28;20032;-33
2022/05/01 02:00:57;;;;;;;;;;;;;;;8.99;79.84;102490.59;5115738;28;20431;-32
2022/05/01 02:03:22;;;;;;;7.07;6.38;;;;;;;8.91;80.71;102484.44;5114974;28;19912;-33
2022/05/01 02:05:48;;;;;;;8.40;6.63;;;;;;;8.79;80.70;102473.22;5114809;28;20045;-33
2022/05/01 02:08:14;;;;;;;;;;;;;;;8.97;79.27;102473.75;5115110;28;20034;-33
2022/05/01 02:10:39;;;;;;;6.43;5.82;;;;;;;8.89;80.42;102478.38;5114958;28;20006;-32
2022/05/01 02:13:06;;;;;;;7.63;6.40;;;;;;;8.90;80.10;102483.59;5114645;28;20332;-33
2022/05/01 02:15:32;;;;;;;10.90;7.13;;;;;;;8.89;80.17;102476.53;5115022;28;20074;-33
2022/05/01 02:17:58;;;;;;;9.00;6.93;;;;;;;8.87;80.35;102477.72;5114525;28;20020;-33
2022/05/01 02:20:26;;;;;;;6.93;6.22;;;;;;;8.79;80.47;102475.94;5114585;28;20035;-33
2022/05/01 02:22:53;;;;;;;9.65;6.22;;;;;;;8.77;80.72;102472.53;5114625;28;20424;-33
2022/05/01 02:25:20;;;;;;;7.30;6.60;;;;;;;8.72;80.90;102477.66;5114717;28;20380;-33
2022/05/01 02:27:45;;;;;;;8.88;6.70;;;;;;;8.65;80.29;102447.88;5114455;28;20023;-33
2022/05/01 02:30:11;;;;;;;7.43;6.73;;;;;;;8.63;80.50;102455.28;5115020;28;20035;-33
2022/05/01 02:32:37;;;;;;;7.90;6.30;;;;;;;8.80;80.43;102469.50;5114320;28;20024;-33
2022/05/01 02:35:03;;;;;;;;;;;;;;;8.87;79.82;102469.63;5115561;28;20426;-33
2022/05/01 02:37:28;;;;;;;8.00;6.85;;;;;;;8.74;80.23;102459.44;5114193;28;19908;-32
2022/05/01 02:39:54;;;;;;;6.87;6.17;;;;;;;8.69;81.42;102453.75;5113988;28;20118;-33
2022/05/01 02:42:19;;;;;;;7.77;6.97;;;;;;;8.72;80.68;102453.38;5114287;28;20031;-33
2022/05/01 02:44:44;;;;;;;7.67;6.50;;;;;;;8.73;80.95;102460.44;5113749;28;20049;-33
2022/05/01 02:47:11;;;;;;;11.48;7.55;;;;;;;8.75;81.21;102453.84;5113845;28;20076;-33
2022/05/01 02:49:36;;;;;;;;;;;;;;;8.83;79.63;102454.81;5114518;28;20023;-34
2022/05/01 02:52:02;;;;;;;8.95;6.75;;;;;;;8.71;80.81;102451.69;5114150;28;19908;-33
2022/05/01 02:54:28;;;;;;;7.57;6.53;;;;;;;8.69;81.46;102451.88;5114795;28;20024;-33
2022/05/01 02:56:54;;;;;;;6.95;6.30;;;;;;;8.71;81.26;102457.94;5113741;28;20242;-33
2022/05/01 02:59:20;;;;;;;10.67;7.07;;;;;;;8.66;81.34;102454.09;5114184;28;20325;-33
2022/05/01 03:01:45;;;;;;;7.68;6.80;;;;;;;8.55;82.11;102451.81;5114162;28;20285;-33
2022/05/01 03:04:11;;;;;;;8.23;7.07;;;;;;;8.59;81.67;102453.09;5113647;28;20216;-33
2022/05/01 03:06:36;;;;;;;8.75;7.72;;;;;;;8.54;82.36;102448.28;5113778;28;20105;-33
2022/05/01 03:09:03;;;;;;;8.00;7.20;;;;;;;8.51;82.46;102445.94;5113374;28;20066;-34
2022/05/01 03:11:28;;;;;;;7.90;6.95;;;;;;;8.46;82.32;102448.31;5113416;28;20050;-33
2022/05/01 03:13:54;;;;;;;7.37;6.67;;;;;;;8.49;82.35;102448.81;5113907;28;20476;-33
2022/05/01 03:16:20;;;;;;;7.80;7.00;;;;;;;8.49;82.74;102446.13;5113730;28;20464;-33
2022/05/01 03:24:15;;;;;;;7.97;7.18;;;;;;;8.45;82.48;102449.34;5113656;28;20041;-33
2022/05/01 03:26:41;;;;;;;10.63;7.05;;;;;;;8.38;82.18;102440.28;5113466;28;20114;-33
2022/05/01 03:29:07;;;;;;;8.60;7.70;;;;;;;8.40;83.29;102444.50;5113072;28;20062;-33
2022/05/01 03:31:35;;;;;;;8.05;7.07;;;;;;;8.40;83.27;102443.66;5114117;28;20024;-33
2022/05/01 03:34:04;;;;;;;8.65;7.43;;;;;;;8.36;83.19;102443.16;5112889;28;20028;-33
2022/05/01 03:36:29;;;;;;;8.05;7.25;;;;;;;8.20;83.28;102425.19;5113782;28;20023;-33
2022/05/01 03:38:55;;;;;;;8.88;7.95;;;;;;;8.20;83.91;102432.44;5113879;28;20400;-33
2022/05/01 03:41:20;;;;;;;9.07;6.70;;;;;;;8.25;83.65;102430.91;5113878;28;20056;-33
2022/05/01 03:43:45;;;;;;;8.13;7.17;;;;;;;8.24;83.86;102431.88;5113625;28;20031;-33
2022/05/01 03:46:11;;;;;;;8.67;7.77;;;;;;;8.09;84.23;102416.66;5113847;28;20032;-33
2022/05/01 03:48:36;;;;;;;10.27;8.57;;;;;;;8.16;84.34;102423.03;5113192;28;20031;-33
2022/05/01 03:51:02;;;;;;;9.30;8.40;;;;;;;8.14;84.89;102433.97;5113165;28;20020;-33
2022/05/01 03:53:29;;;;;;;;;;;;;;;8.26;82.17;102437.13;5113533;28;20035;-33
2022/05/01 03:55:55;;;;;;;9.07;7.90;;;;;;;8.03;84.22;102439.75;5115991;28;19945;-33
2022/05/01 03:58:21;;;;;;;13.10;8.15;;;;;;;7.99;85.04;102433.88;5117487;28;20024;-33
2022/05/01 04:00:47;;;;;;;9.45;8.43;;;;;;;7.88;84.92;102426.19;5117234;28;20540;-33
2022/05/01 04:03:16;;;;;;;8.77;7.88;;;;;;;7.96;84.69;102436.09;5117117;28;20039;-33
2022/05/01 04:05:42;;;;;;;9.57;8.18;;;;;;;7.80;85.53;102414.59;5117692;28;20035;-33
2022/05/01 04:08:08;;;;;;;10.02;9.00;;;;;;;7.74;85.76;102422.34;5117211;28;20107;-33
2022/05/01 04:10:38;;;;;;;10.38;8.98;;;;;;;7.74;85.70;102432.28;5117220;28;20177;-34
2022/05/01 04:13:04;;;;;;;10.00;8.95;;;;;;;7.61;85.78;102423.91;5117071;28;20048;-34
2022/05/01 04:15:29;;;;;;;9.95;8.50;;;;;;;7.68;85.84;102425.75;5117388;28;20041;-33
2022/05/01 04:17:55;;;;;;;10.88;9.40;;;;;;;7.72;85.46;102440.56;5098384;28;20039;-33
2022/05/01 04:20:20;;;;;;;11.83;9.13;;;;;;;7.72;85.72;102439.72;5117606;28;20030;-33
2022/05/01 04:22:47;;;;;;;10.40;9.43;;;;;;;7.68;86.37;102441.06;5116917;28;20031;-33
2022/05/01 04:25:24;;;;;;;10.00;8.85;;;;;;;7.61;85.90;102437.38;5116650;28;20059;-33
2022/05/01 04:27:55;;;;;;;10.48;9.40;;;;;;;7.61;86.15;102426.59;5116745;28;20162;-33
2022/05/01 04:30:22;;;;;;;11.32;10.13;;;;;;;7.65;86.69;102438.72;5117139;28;20028;-33
2022/05/01 04:32:54;;;;;;;11.20;9.82;;;;;;;7.46;86.43;102413.84;5116737;28;20028;-33
2022/05/01 04:35:25;;;;;;;11.52;9.88;;;;;;;7.43;86.48;102429.53;5116808;28;20034;-33
2022/05/01 04:37:52;;;;;;;11.02;10.00;;;;;;;7.53;86.78;102435.56;5117167;28;20024;-33
2022/05/01 04:40:19;;;;;;;11.52;10.43;;;;;;;7.35;87.01;102414.22;5116719;28;20027;-33
2022/05/01 04:42:45;;;;;;;11.55;10.35;;;;;;;7.53;87.33;102442.78;5098264;28;20425;-33
2022/05/01 04:45:11;;;;;;;12.10;10.90;;;;;;;7.45;87.57;102439.09;5116559;28;20019;-33
2022/05/01 04:47:37;;;;;;;12.02;10.68;;;;;;;7.49;87.99;102445.81;5116188;28;20468;-33
2022/05/01 04:50:03;;;;;;;11.85;10.35;;;;;;;7.36;87.60;102441.97;5116189;28;20372;-33
2022/05/01 04:52:29;;;;;;;12.48;11.00;;;;;;;7.33;87.72;102440.47;5116578;28;20130;-33
2022/05/01 04:54:55;;;;;;;12.40;11.20;;;;;;;7.30;88.38;102448.03;5116366;28;20069;-33
2022/05/01 04:57:20;;;;;;;12.30;10.98;;;;;;;7.32;87.15;102441.50;5117101;28;20027;-33
2022/05/01 04:59:45;;;;;;;12.57;11.17;;;;;;;7.34;87.91;102438.63;5116291;28;20059;-33
2022/05/01 05:02:11;;;;;;;11.67;10.57;;;;;;;7.28;88.17;102450.06;5098334;28;20038;-33
2022/05/01 05:04:36;;;;;;;14.23;11.47;;;;;;;7.27;88.65;102449.25;5097421;28;20035;-33
2022/05/01 05:07:02;;;;;;;12.37;11.10;;;;;;;7.29;88.83;102449.06;5115462;28;20030;-33
2022/05/01 05:12:11;;;;;;;12.40;11.23;;;;;;;7.07;88.80;102429.88;5116358;28;20043;-33
2022/05/01 05:14:37;;;;;;;12.13;10.93;;;;;;;7.29;88.26;102462.50;5116428;28;20402;-33
2022/05/01 05:17:06;;;;;;;13.25;11.85;;;;;;;7.31;88.75;102450.56;5116225;28;20383;-33
2022/05/01 05:19:32;;;;;;;12.55;11.27;;;;;;;7.36;88.97;102453.56;5115761;28;20023;-34
2022/05/01 05:21:57;;;;;;;12.55;11.40;;;;;;;7.35;88.52;102459.97;5115837;28;20031;-33
2022/05/01 05:24:22;;;;;;;12.70;11.50;;;;;;;7.33;88.55;102453.09;5115742;28;20110;-33
2022/05/01 05:26:48;;;;;;;11.80;10.63;;;;;;;7.38;88.41;102459.63;5116359;28;20073;-33
2022/05/01 05:29:13;;;;;;;12.63;11.43;;;;;;;7.44;88.84;102463.50;5115991;28;20157;-33
2022/05/01 05:31:38;;;;;;;13.67;12.00;;;;;;;7.34;88.53;102455.59;5115964;28;20442;-34
2022/05/01 05:34:04;;;;;;;13.27;12.07;;;;;;;7.48;88.79;102467.53;5115660;28;20037;-33
2022/05/01 05:36:29;;;;;;;12.10;10.90;;;;;;;7.46;88.33;102478.44;5116413;28;20039;-33
2022/05/01 05:38:54;;;;;;;13.00;11.70;;;;;;;7.43;88.02;102476.13;5097107;28;20028;-33
2022/05/01 05:41:20;;;;;;;12.90;11.63;;;;;;;7.43;88.50;102468.03;5115840;28;20035;-33
2022/05/01 05:43:45;;;;;;;13.23;11.97;;;;;;;7.56;88.57;102477.44;5115287;28;20109;-33
2022/05/01 05:46:10;;;;;;;14.17;12.67;;;;;;;7.52;88.05;102473.44;5115406;28;20020;-33
2022/05/01 05:48:37;;;;;;;13.53;12.13;;;;;;;7.51;88.82;102479.78;5115373;28;20031;-33
2022/05/01 05:51:05;;;;;;;14.15;12.75;;;;;;;7.51;88.66;102472.56;5115238;28;20016;-33
2022/05/01 05:53:31;;;;;;;13.88;12.55;;;;;;;7.46;89.46;102483.84;5115403;28;20080;-33
2022/05/01 05:55:56;;;;;;;13.80;12.40;;;;;;;7.47;89.05;102474.78;5115401;28;20471;-33
2022/05/01 05:58:22;;;;;;;13.23;11.82;;;;;;;7.61;88.71;102481.31;5114997;28;20034;-34
2022/05/01 06:00:47;;;;;;;13.03;11.83;;;;;;;7.54;88.76;102458.75;5115137;28;20038;-34
2022/05/01 06:03:13;;;;;;;13.70;12.32;;;;;;;7.71;88.71;102476.56;5114893;28;20080;-33
2022/05/01 06:05:38;;;;;;;14.50;11.80;;;;;;;7.78;88.04;102470.50;5114734;28;20088;-33
2022/05/01 06:08:04;;;;;;;14.23;12.83;;;;;;;7.88;88.92;102487.28;5115420;28;20327;-33
2022/05/01 06:10:29;;;;;;;13.43;12.13;;;;;;;8.02;88.15;102491.97;5115153;28;20031;-34
2022/05/01 06:12:54;;;;;;;14.80;12.60;;;;;;;7.89;87.91;102462.88;5114868;28;20043;-33
2022/05/01 06:15:20;;;;;;;14.97;13.43;;;;;;;8.04;88.02;102472.91;5115012;28;20031;-34
2022/05/01 06:17:45;;;;;;;13.57;12.37;;;;;;;8.19;87.36;102484.63;5114492;28;20174;-33
2022/05/01 06:20:11;;;;;;;13.67;12.00;;;;;;;8.20;87.61;102487.19;5115543;28;20062;-33
2022/05/01 06:22:36;;;;;;;12.95;11.65;;;;;;;8.30;87.58;102481.56;5114302;28;20279;-33
2022/05/01 06:25:02;;;;;;;13.70;12.37;;;;;;;8.38;87.38;102486.94;5115167;28;20027;-33
2022/05/01 06:27:27;;;;;;;13.77;12.30;;;;;;;8.44;86.89;102485.38;5114675;28;20031;-34
2022/05/01 06:29:53;;;;;;;14.10;12.60;;;;;;;8.56;86.80;102493.94;5114565;28;20427;-34
2022/05/01 06:32:19;;;;;;;13.47;12.07;;;;;;;8.65;87.58;102490.19;5115106;28;20030;-34
2022/05/01 06:34:47;;;;;;;;;;;;;;;8.78;86.01;102487.72;5114555;28;20102;-34
2022/05/01 06:37:14;;;;;;;11.82;10.73;;;;;;;8.85;86.71;102491.38;5114949;28;19914;-33
2022/05/01 06:39:39;;;;;;;13.30;12.00;;;;;;;8.97;86.15;102487.22;5114054;28;20483;-34
2022/05/01 06:42:05;;;;;;;12.75;10.93;;;;;;;9.14;85.69;102490.66;5114390;28;20126;-34
2022/05/01 06:44:31;;;;;;;12.90;11.57;;;;;;;9.15;86.08;102491.50;5114060;28;20015;-34
2022/05/01 06:46:57;;;;;;;13.27;12.02;;;;;;;9.12;85.43;102489.97;5114904;28;20081;-34
2022/05/01 06:49:22;;;;;;;12.57;11.27;;;;;;;9.24;85.65;102493.09;5114441;28;20024;-34
2022/05/01 06:51:48;;;;;;;12.53;11.27;;;;;;;9.26;84.74;102497.28;5114668;28;20456;-34
2022/05/01 06:54:13;;;;;;;12.10;11.00;;;;;;;9.26;84.78;102493.75;5114622;28;20434;-34
2022/05/01 06:56:41;;;;;;;12.97;11.60;;;;;;;9.33;84.77;102496.59;5114646;28;20444;-33
2022/05/01 06:59:07;;;;;;;13.48;12.10;;;;;;;9.30;85.07;102489.66;5114063;28;20118;-34
2022/05/01 07:01:32;;;;;;;13.65;12.40;;;;;;;9.34;84.96;102487.44;5113940;28;20035;-34
2022/05/01 07:03:58;;;;;;;14.38;11.20;;;;;;;9.47;84.83;102485.81;5113499;28;20030;-34
2022/05/01 07:06:23;;;;;;;13.03;11.33;;;;;;;9.63;84.27;102487.50;5113930;28;20031;-34
2022/05/01 07:08:49;;;;;;;13.67;11.23;;;;;;;9.61;83.65;102473.31;5113600;28;20039;-34
2022/05/01 07:11:14;;;;;;;12.63;11.43;;;;;;;9.64;83.23;102469.44;5114086;28;20283;-34
2022/05/01 07:13:40;;;;;;;12.73;11.57;;;;;;;9.80;83.13;102478.19;5113889;28;20043;-34
2022/05/01 07:16:06;;;;;;;12.35;11.15;;;;;;;9.77;82.64;102480.44;5095550;28;20055;-34
2022/05/01 07:18:31;;;;;;;13.23;11.93;;;;;;;9.85;82.37;102483.03;5113666;28;20023;-34
2022/05/01 07:20:57;;;;;;;12.00;10.52;;;;;;;9.96;82.57;102484.44;5113770;28;20102;-41
2022/05/01 07:23:24;;;;;;;11.73;10.63;;;;;;;9.97;81.37;102476.16;5114255;28;20111;-34
2022/05/01 07:25:49;;;;;;;11.88;10.68;;;;;;;10.16;80.72;102482.84;5114268;28;20028;-34
2022/05/01 07:28:15;;;;;;;11.93;10.73;;;;;;;10.15;79.49;102481.19;5113599;28;20430;-34
2022/05/01 07:30:40;;;;;;;13.30;10.60;;;;;;;10.20;79.88;102491.38;5113143;28;20024;-34
2022/05/01 07:33:05;;;;;;;11.97;10.67;;;;;;;10.33;79.79;102486.19;5113172;28;20093;-34
2022/05/01 07:35:31;;;;;;;11.93;10.70;;;;;;;10.29;80.40;102474.91;5113794;28;20023;-35
2022/05/01 07:37:56;;;;;;;11.43;10.37;;;;;;;10.30;79.85;102484.72;5114054;28;20038;-35
2022/05/01 07:40:24;;;;;;;11.20;10.10;;;;;;;10.33;79.49;102475.38;5113466;28;20505;-34
2022/05/01 07:42:51;;;;;;;11.27;10.18;;;;;;;10.47;79.58;102482.63;5113293;28;20036;-34
2022/05/01 07:45:17;;;;;;;11.82;10.20;;;;;;;10.50;77.70;102490.38;5113059;28;20031;-34
2022/05/01 07:47:43;;;;;;;11.27;9.95;;;;;;;10.62;77.70;102484.44;5113033;28;20042;-34
2022/05/01 07:50:09;;;;;;;11.20;10.05;;;;;;;10.71;77.16;102488.72;5113097;28;20562;-34
2022/05/01 07:52:35;;;;;;;11.30;9.50;;;;;;;10.83;76.60;102497.97;5113247;28;20106;-34
2022/05/01 07:55:02;;;;;;;11.82;10.63;;;;;;;10.82;76.80;102485.50;5113654;28;20058;-34
2022/05/01 07:57:28;;;;;;;11.23;10.13;;;;;;;11.01;75.98;102490.25;5113922;28;20379;-34
2022/05/01 07:59:54;;;;;;;12.10;9.73;;;;;;;10.99;74.46;102486.94;5113552;28;20036;-34
2022/05/01 08:02:20;;;;;;;10.55;9.45;;;;;;;10.90;74.00;102490.78;5113308;28;20032;-34
2022/05/01 08:04:46;;;;;;;;;;;;;;;11.12;75.43;102488.06;5113341;28;20085;-34
2022/05/01 08:07:11;;;;;;;8.63;7.75;;;;;;;11.12;74.73;102479.94;5113479;28;19911;-33
2022/05/01 08:09:37;;;;;;;9.55;8.45;;;;;;;11.23;74.53;102477.56;5113186;28;20053;-34
2022/05/01 08:12:03;;;;;;;10.00;8.53;;;;;;;11.37;72.62;102489.34;5094900;28;20129;-34
2022/05/01 08:14:28;;;;;;;9.38;8.15;;;;;;;11.44;72.88;102481.25;5113674;28;20273;-34
2022/05/01 08:16:53;;;;;;;10.77;9.20;;;;;;;11.52;71.78;102484.66;5113710;28;20027;-34
2022/05/01 08:22:07;;;;;;;8.90;8.00;;;;;;;11.40;71.61;102450.19;5113252;28;20068;-34
2022/05/01 08:24:33;;;;;;;8.90;8.00;;;;;;;11.68;71.70;102480.81;5113100;28;20376;-34
2022/05/01 08:27:05;;;;;;;8.00;7.20;;;;;;;11.95;70.80;102475.56;5113243;28;20038;-34
2022/05/01 08:29:32;;;;;;;9.50;6.75;;;;;;;12.09;68.42;102475.44;5113724;28;20032;-34
2022/05/01 08:31:58;;;;;;;12.02;7.28;;;;;;;12.16;67.92;102472.78;5113456;28;20034;-34
2022/05/01 08:34:23;;;;;;;8.18;7.38;;;;;;;12.19;66.88;102466.09;5112889;28;20468;-34
2022/05/01 08:36:48;;;;;;;8.27;6.90;;;;;;;12.35;66.47;102455.72;5112757;28;20023;-34
2022/05/01 08:39:14;;;;;;;8.33;6.67;;;;;;;12.41;65.90;102464.09;5113394;28;20031;-34
2022/05/01 08:41:39;;;;;;;7.30;6.60;;;;;;;12.24;66.58;102469.88;5113361;28;20027;-34
2022/05/01 08:44:05;;;;;;;7.63;6.65;;;;;;;12.25;66.41;102471.56;5116244;28;20292;-34
2022/05/01 08:46:30;;;;;;;;;;;;;;;12.41;66.98;102470.34;5117002;28;20357;-34
2022/05/01 08:49:04;;;;;;;5.53;4.93;;;;;;;12.50;62.41;102458.28;5116496;28;19915;-34
2022/05/01 08:51:35;;;;;;;6.07;4.88;;;;;;;12.66;62.73;102461.66;5116774;28;20395;-35
2022/05/01 08:54:04;;;;;;;5.47;4.60;;;;;;;12.95;62.55;102463.16;5116204;28;20035;-35
2022/05/01 08:56:32;;;;;;;6.07;4.82;;;;;;;13.13;60.43;102450.66;5116945;28;20027;-34
2022/05/01 08:58:59;;;;;;;6.65;4.93;;;;;;;13.30;59.13;102458.41;5115955;28;20023;-34
2022/05/01 09:01:24;;;;;;;5.22;4.72;;;;;;;13.50;58.51;102459.22;5116496;28;20106;-34
2022/05/01 09:03:51;;;;;;;6.53;5.07;;;;;;;13.58;57.66;102450.84;5115832;28;20210;-35
2022/05/01 09:06:16;;;;;;;5.40;4.85;;;;;;;13.51;57.26;102417.38;5116147;28;20027;-34
2022/05/01 09:08:41;;;;;;;6.60;4.40;;;;;;;13.73;56.37;102449.78;5115866;28;20383;-34
2022/05/01 09:13:52;;;;;;;4.53;4.03;;;;;;;13.81;54.99;102444.09;5116527;28;20093;-34
2022/05/01 09:16:17;;;;;;;4.22;3.67;;;;;;;14.16;54.78;102448.16;5116112;28;20032;-34
2022/05/01 09:18:44;;;;;;;4.40;3.45;;;;;;;14.21;51.52;102422.19;5115963;28;20102;-34
2022/05/01 09:21:09;;;;;;;3.45;2.33;;;;;;;14.71;46.86;102450.41;5097338;28;20047;-35
2022/05/01 09:23:39;;;;;;;;;;;;;;;15.11;50.37;102452.81;5117140;28;20032;-35
2022/05/01 09:26:08;;;;;;;3.78;3.40;;;;;;;15.18;48.28;102448.16;5115879;28;19919;-35
2022/05/01 09:28:34;;;;;;;5.00;3.72;;;;;;;14.77;48.55;102445.97;5115589;28;20020;-34
2022/05/01 09:30:59;;;;;;;;;;;;;;;14.98;51.93;102451.03;5116747;28;20340;-34
2022/05/01 09:33:25;;;;;;;5.30;3.13;;;;;;;14.55;48.87;102454.47;5115594;28;19980;-34
2022/05/01 09:35:50;;;;;;;;;;;;;;;14.68;48.92;102448.09;5116052;28;20106;-34
2022/05/01 09:38:23;;;;;;;3.22;2.80;;;;;;;14.33;48.41;102448.47;5115574;28;20018;-34
2022/05/01 09:40:54;;;;;;;3.92;3.00;;;;;;;14.20;48.47;102448.56;5115443;28;20031;-34
2022/05/01 09:43:42;;;;;;;5.40;3.95;;;;;;;13.86;50.81;102453.28;5097127;28;20473;-34
2022/05/01 09:46:15;;;;;;;4.68;3.60;;;;;;;13.74;51.32;102443.28;5115940;28;20359;-34
2022/05/01 09:48:42;;;;;;;4.38;3.20;;;;;;;13.74;49.55;102446.00;5115359;28;20102;-35
2022/05/01 09:51:18;;;;;;;4.80;2.80;;;;;;;13.90;50.68;102453.69;5115692;28;20020;-35
2022/05/01 09:53:44;;;;;;;4.50;3.33;;;;;;;13.87;49.22;102454.97;5115475;28;20472;-35
2022/05/01 09:56:10;;;;;;;4.10;3.03;;;;;;;13.88;49.35;102450.34;5116051;28;20345;-34
2022/05/01 09:58:40;;;;;;;3.72;3.22;;;;;;;13.68;49.17;102422.38;5114853;28;20077;-34
2022/05/01 10:01:16;;;;;;;5.45;3.20;;;;;;;13.77;50.02;102453.75;5096594;28;20102;-34
2022/05/01 10:03:46;;;;;;;3.92;3.05;;;;;;;13.59;47.59;102448.97;5114735;28;20030;-34
2022/05/01 10:06:16;;;;;;;4.10;2.88;;;;;;;13.62;47.50;102457.53;5115693;28;20061;-34
2022/05/01 10:08:46;;;;;;;4.13;2.95;;;;;;;13.81;47.20;102452.25;5114901;28;20024;-35
2022/05/01 10:11:17;;;;;;;3.50;2.75;;;;;;;13.91;48.25;102447.22;5114882;28;20136;-34
2022/05/01 10:13:46;;;;;;;4.22;3.00;;;;;;;13.91;47.92;102449.94;5077324;28;20399;-35
2022/05/01 10:16:15;;;;;;;3.55;2.80;;;;;;;13.99;47.87;102446.13;5095371;28;20032;-35
2022/05/01 10:18:42;;;;;;;4.70;3.20;;;;;;;14.01;48.37;102441.31;5094537;28;20020;-34
2022/05/01 10:21:07;;;;;;;3.85;3.20;;;;;;;14.07;47.18;102446.72;5095296;28;20060;-34
2022/05/01 10:23:34;;;;;;;3.92;3.33;;;;;;;13.98;47.43;102412.66;5094470;28;20067;-34
2022/05/01 10:26:14;;;;;;;4.03;3.33;;;;;;;14.00;47.17;102436.91;5076492;28;20032;-35
2022/05/01 10:28:52;;;;;;;4.75;3.00;;;;;;;14.12;48.39;102444.19;5094549;28;20056;-34
2022/05/01 10:35:09;;;;;;;4.25;3.05;;;;;;;14.41;48.03;102428.38;5094221;28;20070;-34
2022/05/01 10:38:12;;;;;;;3.55;2.72;;;;;;;14.62;48.10;102433.47;5094162;28;20020;-34
2022/05/01 10:40:42;;;;;;;5.72;2.85;;;;;;;14.40;45.84;102422.09;5094942;28;20035;-34
2022/05/01 10:43:24;;;;;;;4.18;2.92;;;;;;;14.55;47.26;102424.53;5094047;28;20480;-35
2022/05/01 10:45:51;;;;;;;4.45;3.15;;;;;;;14.73;48.16;102422.94;5094653;28;20024;-35
2022/05/01 10:48:28;;;;;;;4.75;2.80;;;;;;;14.93;47.36;102424.47;5094171;28;20032;-35
2022/05/01 10:50:54;;;;;;;4.03;2.72;;;;;;;14.94;45.89;102412.53;5093951;28;20338;-34
2022/05/01 10:53:20;;;;;;;;;;;;;;;15.24;47.23;102416.47;5094262;28;20097;-35
2022/05/01 10:55:48;;;;;;;3.10;2.80;;;;;;;15.01;45.71;102414.34;5094052;28;20336;-35
2022/05/01 10:58:27;;;;;;;3.83;3.10;;;;;;;14.61;45.42;102415.50;5093581;28;20047;-35
2022/05/01 11:00:54;;;;;;;4.30;3.38;;;;;;;14.46;45.69;102417.66;5093487;28;20036;-35
2022/05/01 11:03:26;;;;;;;4.32;3.58;;;;;;;14.35;47.14;102410.19;5093294;28;20090;-35
2022/05/01 11:05:55;;;;;;;3.33;3.03;;;;;;;14.07;46.28;102410.53;5093497;28;20425;-35
2022/05/01 11:08:27;;;;;;;4.00;3.60;;;;;;;14.09;46.92;102401.09;5094498;28;20437;-34
2022/05/01 11:10:55;;;;;;;4.78;3.88;;;;;;;14.52;49.96;102391.47;5093622;28;20028;-35
2022/05/01 11:13:24;;;;;;;4.53;3.50;;;;;;;14.62;45.41;102389.94;5093321;28;20048;-35
2022/05/01 11:15:51;;;;;;;4.32;3.38;;;;;;;14.97;46.78;102396.78;5094095;28;20467;-35
2022/05/01 11:18:27;;;;;;;3.90;3.25;;;;;;;14.91;46.62;102395.78;5075213;28;20524;-35
2022/05/01 11:20:52;;;;;;;4.32;3.10;;;;;;;15.04;45.55;102392.13;5093534;28;20056;-35
2022/05/01 11:23:31;;;;;;;;;;;;;;;15.00;45.07;102394.44;5093776;28;20067;-35
2022/05/01 11:26:13;;;;;;;3.80;3.25;;;;;;;14.92;46.09;102386.56;5094059;28;20244;-35
2022/05/01 11:28:42;;;;;;;3.92;3.05;;;;;;;14.94;45.73;102384.47;5093029;28;20024;-35
2022/05/01 11:31:35;;;;;;;4.05;3.20;;;;;;;15.18;46.63;102380.88;5093380;28;20024;-35
2022/05/01 11:34:24;;;;;;;4.82;3.45;;;;;;;15.27;45.52;102377.84;5093548;28;20035;-34
2022/05/01 11:37:07;;;;;;;3.45;3.08;;;;;;;15.22;45.44;102367.63;5093809;28;20024;-35
2022/05/01 11:39:51;;;;;;;3.90;3.20;;;;;;;15.26;45.10;102376.19;5093186;28;20492;-35
2022/05/01 11:42:23;;;;;;;4.05;3.20;;;;;;;14.98;43.47;102372.03;5093645;28;20028;-35
2022/05/01 11:44:49;;;;;;;4.72;3.00;;;;;;;14.90;44.19;102362.28;5093756;28;20035;-35
2022/05/01 11:47:15;;;;;;;;;;;;;;;15.23;46.00;102363.03;5093922;28;20027;-35
2022/05/01 11:49:40;;;;;;;3.33;2.78;;;;;;;15.04;44.20;102362.16;5093178;28;20362;-35
2022/05/01 11:52:06;;;;;;;;;;;;;;;15.23;46.10;102346.69;5093271;28;20036;-35